Terminal Aerodrome Forecast
Issued by NWS

Home | Current Version | Previous Version | Text Only | Print | Product List | Glossary On
Versions: 1 2 3 4 5 6 7 8 9 10 11 12 13 14 15 16 17 18 19 20 21 22 23 24 25 26 27 28 29 30 31 32 33 34 35 36 37 38 39
000
FTUS45 KRIW 232126 AAC
TAFPNA
TAF AMD
KPNA 232126Z 2321/2418 15007KT 4SM -SN SCT008 OVC015
      TEMPO 2321/2324 1SM -SN OVC008
     FM240800 VRB05KT 2SM -SN BKN009 OVC015
     FM241300 VRB06KT 4SM -SN SCT009 OVC015
      AMD LTD TO CLD VIS AND WIND=

USA.gov is the U.S. government's official web portal to all federal, state and local government web resources and services.